Abdelkader Bennacer

Scout - ES Setif
3 Apr 2027
Saturday
Process

Personality

Adaptability (17) Ambition (6) Controversy (5) Loyalty (9) Pressure (3) Professionalism (14) Sportsmanship (17) Temperament (17)

Profile

Coaching Style Democratic
License Continental B
Determination 10
Man Management 7
Motivating 9
Discipline 8
Job Satisfaction
58%
Fatigue
0%
Role Scout
Wage 65.8K p/w
Contract 14.03.2030

Performance

Behaviour Good
Training Effectiveness
25%
Player Development
25%
Injury Prevention
55%
Tactical Implementation
50%

Recent Events

Attended a recruitment meeting 7d ago
Attended a recruitment meeting 7d ago
Birthday 7d ago
Assessed a player 7d ago
Assessed a player 7d ago
Observed a match 7d ago
Assessed a player 7d ago
Assessed a player 7d ago

Currently Monitoring

136
Player Club Status Ability Confidence Watched Last Observed Latest Vote
Ognjen Gašević CSKA 1948 Active 114 / 113 40% 3 28.03.2027 -
Riley Owen Pergolettese Active 85 / 87 40% 1 28.03.2027 -
Luca Connell Barnsley Active 102 / 134 40% 2 27.03.2027 -
Alejandro Andrade Morelia Active 106 / 128 40% 1 27.03.2027 -
César González Queretaro Active 66 / 89 40% 1 25.03.2027 -
Valentín Díaz Temperley Active 91 / 96 40% 1 25.03.2027 -
Johnly Yfeko Exeter City Active 105 / 107 40% 2 24.03.2027 -
Zech Medley Fleetwood Town Active 89 / 103 40% 1 24.03.2027 -
Freddy Bernal Chelsea Active 81 / 115 40% 1 22.03.2027 -
Axel Afonso Atlético Tucumán Active 85 / 86 40% 1 22.03.2027 -
Ramahlwe Mphela Free State Stars Active 106 / 108 40% 1 21.03.2027 -
Solomon Tweh Al-Ra'ed Active 122 / 116 40% 3 19.03.2027 -
Gavin Kilkenny Swindon Town Active 98 / 112 40% 1 19.03.2027 -
Harry Williams Walsall Active 117 / 102 40% 2 18.03.2027 -
Vitalii Kholod Karpaty Active 112 / 106 40% 1 18.03.2027 -
Ryan Stirk Chesterfield Active 111 / 120 40% 1 16.03.2027 -
Khalfan Nader Al Shaab Active 85 / 124 40% 1 16.03.2027 -
Ihor Snurnitsyn Nyva Active 85 / 115 40% 1 13.03.2027 -
Siphamandla Ncanana Maritzburg United Active 110 / 121 40% 1 13.03.2027 -
Salvador Manríquez Dorados Active 97 / 87 40% 1 11.03.2027 -
Giovanni Corradini Ascoli Active 125 / 115 40% 1 11.03.2027 -
Erick Ngcobo Black Aces Active 116 / 93 40% 2 10.03.2027 -
Lebogang Erasmus Platinum Stars Active 99 / 124 40% 2 10.03.2027 -
Brandon Gómez San Telmo Active 71 / 75 40% 1 10.03.2027 -
Kiyani Zeggen AZ Active 135 / 145 40% 1 10.03.2027 -
Udoka Godwin-Malife Burton Albion Active 88 / 84 40% 1 08.03.2027 -
Liam Bennett Cambridge United Active 101 / 115 40% 1 08.03.2027 -
Lewis Freestone Stevenage Active 117 / 85 40% 1 06.03.2027 -
Mohammed Rabii Al Jazira Active 102 / 93 40% 2 05.03.2027 -
Charlie Webster Burton Albion Active 110 / 106 40% 2 05.03.2027 -
Fouad Kermiche Paradou Active 107 / 94 40% 2 04.03.2027 -
Kyle John Port Vale Active 111 / 98 40% 1 04.03.2027 -
Ignacio Coscio Huracán Active 96 / 80 40% 1 02.03.2027 -
Charlie Casper Oxford United Active 71 / 107 40% 1 02.03.2027 -
Osama Al-Thumayri Al-Fayha Active 63 / 53 40% 1 01.03.2027 -
Luis Mateus Atletico Bucaramanga Active 80 / 85 40% 1 01.03.2027 -
Jordan Brown Blackpool Active 103 / 84 40% 1 27.02.2027 -
Abdulrahman Hindi Al-Taawoun Active 102 / 116 40% 1 27.02.2027 -
Gilbani Samba Asante Kotoko Active 94 / 110 40% 1 26.02.2027 -
Thauan Lara Portimonense Active 113 / 105 40% 1 21.02.2027 -
Lucas Ness Notts County Active 108 / 115 40% 1 18.02.2027 -
Toby Sibbick Burton Albion Active 104 / 92 40% 2 10.02.2027 -
Goodman Mosele Chippa United Active 104 / 98 40% 1 10.02.2027 -
Merwane Khelif MC Alger Active 101 / 99 40% 2 09.02.2027 -
Jonata Machado Al-Ta'ee Active 112 / 116 40% 1 09.02.2027 -
Taha Yassine Tahar Paradou Active 115 / 88 40% 1 08.02.2027 -
Hamdi Akujobi Jomo Cosmos Active 106 / 109 40% 2 05.02.2027 -
Mohamed Azzi Dinamo Makhachkala Active 113 / 114 40% 1 04.02.2027 -
Alan Tsaraev Arsenal Tula Active 103 / 107 40% 2 24.01.2027 -
Mohammed Mahzari Al-Hilal Active 110 / 98 40% 2 23.01.2027 -
Jhon Palacios Orenburg Active 121 / 131 40% 1 19.01.2027 -
Saeed Baattia Al-Fateh Active 89 / 105 40% 1 18.01.2027 -
Jayden Sweeney Grimsby Town Active 104 / 118 40% 1 18.01.2027 -
Alen Kurtalić Floriana Active 107 / 104 40% 1 16.01.2027 -
Diego Murillo Málaga Active 124 / 120 40% 1 16.01.2027 -
Akos Bese Haladas Active 117 / 111 40% 1 14.01.2027 -
Wesley Tarxien Rainbows Active 97 / 91 40% 1 14.01.2027 -
Rio Adébísí Peterborough United Active 80 / 101 40% 2 12.01.2027 -
Ángel Zapata Tijuana Active 109 / 103 40% 1 12.01.2027 -
Kheireddine Benamrane Olympique Akbou Active 89 / 85 55% 1 01.01.2027 -
Connor Barrett Walsall Active 108 / 112 40% 1 01.01.2027 -
Mohamed Kanno Al-Hilal Lost 112 / 113 40% 1 31.12.2026 -
Mpho Mathebula Bloemfontein Celtic Active 99 / 86 40% 1 30.12.2026 -
Jack Currie Oxford United Active 123 / 121 40% 1 30.12.2026 -
Nabil Alioui Damac Active 98 / 97 40% 2 29.12.2026 -
Simon Ramabu Polokwane City Active 104 / 113 40% 1 29.12.2026 -
Brahima Diarra Al Wahda Active 109 / 111 40% 1 27.12.2026 -
Csanád Vilmos Dénes Debrecen Active 119 / 120 40% 1 27.12.2026 -
Mohamed Zoungrana MC Alger Active 116 / 109 40% 1 26.12.2026 -
Darío Ramírez Real Sociedad Active 88 / 86 40% 1 26.12.2026 -
Siyanda Msani University of Pretoria Active 87 / 114 40% 1 25.12.2026 -
Rok Stojanovic NK Domzale Active 125 / 92 40% 1 25.12.2026 -
Mandla Vilakazi Black Aces Active 87 / 93 40% 2 23.12.2026 -
Vincent Harper Walsall Active 85 / 109 40% 1 23.12.2026 -
Đorđe Pantelić Spartak Kostroma Active 115 / 92 40% 1 22.12.2026 -
Iker Pozo Rodina Active 119 / 124 40% 1 22.12.2026 -
Dmitry Tsypchenko Torpedo Moscow Active 124 / 91 40% 2 21.12.2026 -
Raouf Benguit USM Alger Active 106 / 111 40% 3 17.12.2026 -
Valentín Vada Damac Active 121 / 118 40% 1 17.12.2026 -
Sinoxolo Kwayiba Chippa United Active 97 / 104 40% 1 14.12.2026 -
Bader Nasser Al-Fateh Active 104 / 94 40% 1 13.12.2026 -
Fahd Moufi Baltika Active 106 / 117 40% 1 13.12.2026 -
Malebogo Modise Polokwane City Active 120 / 116 40% 1 11.12.2026 -
Nawaf Al-Saadi Al-Khaleej Active 102 / 86 40% 2 10.12.2026 -
Abdulla Hamad Al Wahda Active 129 / 93 40% 1 10.12.2026 -
Juanjo Narváez Al-Ra'ed Active 122 / 120 40% 1 10.12.2026 -
Dramane Kamagaté USM Alger Active 113 / 106 40% 1 08.12.2026 -
Mackenzie Hunt Baniyas Active 118 / 93 40% 1 08.12.2026 -
Hamdi Labidi Olympique Akbou Active 91 / 110 40% 1 06.12.2026 -
Wandile Duba Bidvest Wits Active 89 / 113 40% 1 04.12.2026 -
Thabang Matuludi Polokwane City Active 110 / 114 40% 4 01.12.2026 -
Mohau Nkota Al-Ettifaq Active 113 / 123 40% 4 28.11.2026 -
Omar Shami Al-Ra'ed Active 89 / 97 40% 1 28.11.2026 -
Isaac Tshibangu Emirates Club Active 97 / 102 40% 2 27.11.2026 -
Yaseen Al-Zubaidi Al-Fateh Active 104 / 110 40% 1 27.11.2026 -
Mohammed Al-Dossary Al-Ra'ed Active 111 / 105 40% 2 26.11.2026 -
Robert Skubic NK Domzale Active 122 / 97 40% 1 24.11.2026 -
Igor Serrote Al Jazira Active 110 / 113 40% 1 23.11.2026 -
Faiz Mattoir Septemvri Active 97 / 126 40% 1 23.11.2026 -
Rúben Canedo Al Wahda Active 105 / 107 40% 1 21.11.2026 -
Jobson Al Dhafra Active 113 / 109 40% 1 19.11.2026 -
Fahad Al-Hamad Al-Ta'ee Active 114 / 77 40% 1 19.11.2026 -
Sultan Al-Ghannam Al-Nassr Active 130 / 94 40% 1 17.11.2026 -
Chancel Mbemba Al-Diriyah Active 130 / 123 40% 1 17.11.2026 -
Saymon Dibba Active 97 / 113 40% 1 16.11.2026 -
Hugo Al Wasl Active 130 / 102 40% 3 15.11.2026 -
Leandrinho Sharjah Active 124 / 123 40% 2 15.11.2026 -
Siaka Sidibé Al Wasl Active 123 / 105 40% 1 13.11.2026 -
Ibrahim Al Hammadi Al Shaab Active 110 / 91 40% 1 13.11.2026 -
Moussa N'Diaye Al Nasr Active 105 / 119 40% 1 11.11.2026 -
Bader Munshi Al-Ra'ed Active 80 / 105 40% 1 10.11.2026 -
Nasser Al Shamsi Al Shabab Active 132 / 124 40% 1 07.11.2026 -
Ali Hazazi Al-Qadisiyah Active 118 / 84 40% 1 05.11.2026 -
Ronaldo Maarman University of Pretoria Active 91 / 110 40% 1 01.11.2026 -
Younes El Bahraoui Al-Taawoun Active 107 / 126 40% 1 29.10.2026 -
Bruno Al Jazira Active 119 / 111 40% 2 27.10.2026 -
Agustín Ramírez Inter Active 111 / 96 40% 1 27.10.2026 -
Abdulmalik Al-Jaber Al-Nassr Active 86 / 116 40% 2 26.10.2026 -
Khaled Al-Bloushi Dibba Active 84 / 102 40% 1 24.10.2026 -
Valentín Fenoglio Estudiantes Active 125 / 101 40% 1 20.10.2026 -
Jean Charles Ahoua Al-Faisaly Active 93 / 102 40% 1 17.10.2026 -
Abdullah Matuq Al-Shabab Active 114 / 109 40% 1 15.10.2026 -
Andrey Mazurin Yenisey Active 87 / 102 40% 1 15.10.2026 -
Facundo Kruspzky Al Wahda Active 126 / 116 40% 1 11.10.2026 -
Abdelrahman Saleh Al Wasl Active 94 / 99 40% 1 09.10.2026 -
João Moreira Al Nasr Active 131 / 120 40% 1 09.10.2026 -
Brooklyn Poggenpoel Maritzburg United Active 124 / 125 40% 1 07.10.2026 -
Ahmed Al-Ghamdi Al-Ittihad Active 111 / 84 40% 1 07.10.2026 -
Abdullah Al-Yousif Al-Ra'ed Active 110 / 84 40% 1 08.09.2026 -
Khalifa Al-Hammadi Al Jazira Active 97 / 105 40% 1 08.09.2026 -
Faisal Al-Essa Ohod Active 64 / 68 40% 1 31.08.2026 -
Ramiro Buratti River Plate Active 87 / 80 40% 1 18.08.2026 -
Omar Jobe MC Oran Active 93 / 84 55% 1 10.08.2026 -
Moulay Abdelaziz MC Oran Active 94 / 81 55% 1 03.08.2026 Monitor
Keaton Parks New York City Active 128 / 138 40% 1 01.08.2026 -
Marwan Ateya Al Ahly Active 124 / 126 40% 1 01.08.2026 -